sensor_id;sensor_type;location;lat;lon;timestamp;P1;durP1;ratioP1;P2;durP2;ratioP2
5339;SDS011;2692;48.848;8.924;2023-05-08T00:01:34;4.00;;;2.47;;
5339;SDS011;2692;48.848;8.924;2023-05-08T00:04:00;2.60;;;2.10;;
5339;SDS011;2692;48.848;8.924;2023-05-08T00:06:25;5.03;;;3.13;;
5339;SDS011;2692;48.848;8.924;2023-05-08T00:08:51;5.37;;;3.33;;
5339;SDS011;2692;48.848;8.924;2023-05-08T00:11:17;7.23;;;2.83;;
5339;SDS011;2692;48.848;8.924;2023-05-08T00:13:43;2.90;;;1.73;;
5339;SDS011;2692;48.848;8.924;2023-05-08T00:16:08;2.90;;;2.00;;
5339;SDS011;2692;48.848;8.924;2023-05-08T00:18:35;1.80;;;1.60;;
5339;SDS011;2692;48.848;8.924;2023-05-08T00:21:01;4.47;;;2.50;;
5339;SDS011;2692;48.848;8.924;2023-05-08T00:23:27;3.43;;;1.63;;
5339;SDS011;2692;48.848;8.924;2023-05-08T00:25:52;5.80;;;2.47;;
5339;SDS011;2692;48.848;8.924;2023-05-08T00:28:17;2.80;;;1.97;;
5339;SDS011;2692;48.848;8.924;2023-05-08T00:30:42;2.90;;;2.00;;
5339;SDS011;2692;48.848;8.924;2023-05-08T00:33:08;3.67;;;2.27;;
5339;SDS011;2692;48.848;8.924;2023-05-08T00:35:33;4.93;;;2.00;;
5339;SDS011;2692;48.848;8.924;2023-05-08T00:37:59;8.33;;;2.57;;
5339;SDS011;2692;48.848;8.924;2023-05-08T00:40:25;2.70;;;1.53;;
5339;SDS011;2692;48.848;8.924;2023-05-08T00:42:50;3.33;;;2.30;;
5339;SDS011;2692;48.848;8.924;2023-05-08T00:45:16;5.30;;;2.23;;
5339;SDS011;2692;48.848;8.924;2023-05-08T00:47:41;3.13;;;2.30;;
5339;SDS011;2692;48.848;8.924;2023-05-08T00:50:07;3.80;;;2.67;;
5339;SDS011;2692;48.848;8.924;2023-05-08T00:52:32;3.17;;;1.90;;
5339;SDS011;2692;48.848;8.924;2023-05-08T00:54:58;4.37;;;2.27;;
5339;SDS011;2692;48.848;8.924;2023-05-08T00:57:25;4.63;;;2.17;;
5339;SDS011;2692;48.848;8.924;2023-05-08T00:59:50;2.10;;;1.70;;
5339;SDS011;2692;48.848;8.924;2023-05-08T01:02:16;2.83;;;1.57;;
5339;SDS011;2692;48.848;8.924;2023-05-08T01:04:41;2.20;;;1.53;;
5339;SDS011;2692;48.848;8.924;2023-05-08T01:07:09;4.10;;;2.53;;
5339;SDS011;2692;48.848;8.924;2023-05-08T01:09:34;2.53;;;1.63;;
5339;SDS011;2692;48.848;8.924;2023-05-08T01:14:48;2.30;;;1.83;;
5339;SDS011;2692;48.848;8.924;2023-05-08T01:31:11;2.93;;;2.07;;
5339;SDS011;2692;48.848;8.924;2023-05-08T01:33:46;3.40;;;2.33;;
5339;SDS011;2692;48.848;8.924;2023-05-08T01:36:19;4.57;;;2.67;;
5339;SDS011;2692;48.848;8.924;2023-05-08T01:38:49;4.73;;;2.90;;
5339;SDS011;2692;48.848;8.924;2023-05-08T01:41:22;3.60;;;2.27;;
5339;SDS011;2692;48.848;8.924;2023-05-08T01:46:33;5.37;;;2.53;;
5339;SDS011;2692;48.848;8.924;2023-05-08T01:51:41;3.50;;;2.30;;
5339;SDS011;2692;48.848;8.924;2023-05-08T01:54:09;3.80;;;2.60;;
5339;SDS011;2692;48.848;8.924;2023-05-08T01:56:36;3.57;;;2.40;;
5339;SDS011;2692;48.848;8.924;2023-05-08T01:59:02;5.00;;;2.37;;
5339;SDS011;2692;48.848;8.924;2023-05-08T02:01:28;6.80;;;3.00;;
5339;SDS011;2692;48.848;8.924;2023-05-08T02:03:54;5.43;;;2.90;;
5339;SDS011;2692;48.848;8.924;2023-05-08T02:06:20;5.57;;;3.10;;
5339;SDS011;2692;48.848;8.924;2023-05-08T02:08:46;4.63;;;3.20;;
5339;SDS011;2692;48.848;8.924;2023-05-08T02:11:13;4.67;;;2.73;;
5339;SDS011;2692;48.848;8.924;2023-05-08T02:13:39;5.40;;;3.10;;
5339;SDS011;2692;48.848;8.924;2023-05-08T02:16:06;4.80;;;3.30;;
5339;SDS011;2692;48.848;8.924;2023-05-08T02:18:32;4.23;;;3.50;;
5339;SDS011;2692;48.848;8.924;2023-05-08T02:20:58;6.77;;;3.73;;
5339;SDS011;2692;48.848;8.924;2023-05-08T02:23:24;4.67;;;2.43;;
5339;SDS011;2692;48.848;8.924;2023-05-08T02:25:50;4.00;;;3.00;;
5339;SDS011;2692;48.848;8.924;2023-05-08T02:28:17;5.50;;;3.13;;
5339;SDS011;2692;48.848;8.924;2023-05-08T02:30:43;4.10;;;2.77;;
5339;SDS011;2692;48.848;8.924;2023-05-08T02:33:09;6.37;;;3.30;;
5339;SDS011;2692;48.848;8.924;2023-05-08T02:35:36;4.40;;;2.90;;
5339;SDS011;2692;48.848;8.924;2023-05-08T02:38:02;4.33;;;2.53;;
5339;SDS011;2692;48.848;8.924;2023-05-08T02:40:34;4.43;;;3.00;;
5339;SDS011;2692;48.848;8.924;2023-05-08T02:43:00;4.50;;;3.10;;
5339;SDS011;2692;48.848;8.924;2023-05-08T02:45:27;6.70;;;3.90;;
5339;SDS011;2692;48.848;8.924;2023-05-08T02:48:06;5.40;;;3.87;;
5339;SDS011;2692;48.848;8.924;2023-05-08T02:50:36;3.30;;;2.80;;
5339;SDS011;2692;48.848;8.924;2023-05-08T02:53:05;6.53;;;3.77;;
5339;SDS011;2692;48.848;8.924;2023-05-08T02:55:45;8.60;;;4.00;;
5339;SDS011;2692;48.848;8.924;2023-05-08T02:58:56;4.00;;;3.33;;
5339;SDS011;2692;48.848;8.924;2023-05-08T03:01:07;8.10;;;4.60;;
5339;SDS011;2692;48.848;8.924;2023-05-08T03:03:39;9.90;;;3.87;;
5339;SDS011;2692;48.848;8.924;2023-05-08T03:06:13;8.93;;;4.93;;
5339;SDS011;2692;48.848;8.924;2023-05-08T03:08:43;7.20;;;4.20;;
5339;SDS011;2692;48.848;8.924;2023-05-08T03:11:10;7.43;;;4.40;;
5339;SDS011;2692;48.848;8.924;2023-05-08T03:13:39;6.87;;;5.00;;
5339;SDS011;2692;48.848;8.924;2023-05-08T03:16:05;8.90;;;5.37;;
5339;SDS011;2692;48.848;8.924;2023-05-08T03:18:35;5.00;;;4.27;;
5339;SDS011;2692;48.848;8.924;2023-05-08T03:21:06;8.57;;;6.10;;
5339;SDS011;2692;48.848;8.924;2023-05-08T03:23:32;6.50;;;4.73;;
5339;SDS011;2692;48.848;8.924;2023-05-08T03:25:59;5.77;;;4.63;;
5339;SDS011;2692;48.848;8.924;2023-05-08T03:28:25;10.90;;;5.97;;
5339;SDS011;2692;48.848;8.924;2023-05-08T03:30:51;10.60;;;6.53;;
5339;SDS011;2692;48.848;8.924;2023-05-08T03:33:17;8.53;;;5.63;;
5339;SDS011;2692;48.848;8.924;2023-05-08T03:35:43;7.43;;;4.73;;
5339;SDS011;2692;48.848;8.924;2023-05-08T03:38:09;7.73;;;5.60;;
5339;SDS011;2692;48.848;8.924;2023-05-08T03:40:34;6.93;;;5.70;;
5339;SDS011;2692;48.848;8.924;2023-05-08T03:43:00;9.20;;;5.67;;
5339;SDS011;2692;48.848;8.924;2023-05-08T03:45:26;5.17;;;4.30;;
5339;SDS011;2692;48.848;8.924;2023-05-08T03:47:52;6.47;;;4.43;;
5339;SDS011;2692;48.848;8.924;2023-05-08T03:50:20;6.80;;;4.93;;
5339;SDS011;2692;48.848;8.924;2023-05-08T03:52:45;13.03;;;5.73;;
5339;SDS011;2692;48.848;8.924;2023-05-08T03:55:11;14.27;;;7.00;;
5339;SDS011;2692;48.848;8.924;2023-05-08T03:57:44;13.00;;;5.53;;
5339;SDS011;2692;48.848;8.924;2023-05-08T04:02:45;8.73;;;5.40;;
5339;SDS011;2692;48.848;8.924;2023-05-08T04:07:46;8.40;;;6.37;;
5339;SDS011;2692;48.848;8.924;2023-05-08T04:10:23;9.60;;;5.50;;
5339;SDS011;2692;48.848;8.924;2023-05-08T04:13:27;8.00;;;4.03;;
5339;SDS011;2692;48.848;8.924;2023-05-08T04:15:50;5.43;;;3.53;;
5339;SDS011;2692;48.848;8.924;2023-05-08T04:18:17;5.30;;;3.77;;
5339;SDS011;2692;48.848;8.924;2023-05-08T04:20:49;7.53;;;4.27;;
5339;SDS011;2692;48.848;8.924;2023-05-08T04:23:18;8.90;;;5.67;;
5339;SDS011;2692;48.848;8.924;2023-05-08T04:25:44;10.40;;;7.47;;
5339;SDS011;2692;48.848;8.924;2023-05-08T04:28:11;13.03;;;8.70;;
5339;SDS011;2692;48.848;8.924;2023-05-08T04:30:36;12.17;;;7.40;;
5339;SDS011;2692;48.848;8.924;2023-05-08T04:33:03;16.40;;;8.17;;
5339;SDS011;2692;48.848;8.924;2023-05-08T04:35:29;12.30;;;9.47;;
5339;SDS011;2692;48.848;8.924;2023-05-08T04:37:55;11.50;;;9.07;;
5339;SDS011;2692;48.848;8.924;2023-05-08T04:40:20;18.00;;;8.90;;
5339;SDS011;2692;48.848;8.924;2023-05-08T04:42:46;17.80;;;9.23;;
5339;SDS011;2692;48.848;8.924;2023-05-08T04:45:11;12.40;;;10.00;;
5339;SDS011;2692;48.848;8.924;2023-05-08T04:47:37;13.53;;;9.43;;
5339;SDS011;2692;48.848;8.924;2023-05-08T04:50:02;10.27;;;8.77;;
5339;SDS011;2692;48.848;8.924;2023-05-08T04:52:27;10.50;;;8.17;;
5339;SDS011;2692;48.848;8.924;2023-05-08T04:54:53;14.23;;;9.40;;
5339;SDS011;2692;48.848;8.924;2023-05-08T04:57:18;16.33;;;9.40;;
5339;SDS011;2692;48.848;8.924;2023-05-08T04:59:44;13.73;;;7.70;;
5339;SDS011;2692;48.848;8.924;2023-05-08T05:02:09;14.47;;;8.70;;
5339;SDS011;2692;48.848;8.924;2023-05-08T05:04:35;12.33;;;9.00;;
5339;SDS011;2692;48.848;8.924;2023-05-08T05:07:00;9.93;;;7.10;;
5339;SDS011;2692;48.848;8.924;2023-05-08T05:09:26;8.80;;;7.03;;
5339;SDS011;2692;48.848;8.924;2023-05-08T05:11:58;8.70;;;6.60;;
5339;SDS011;2692;48.848;8.924;2023-05-08T05:14:23;11.33;;;8.10;;
5339;SDS011;2692;48.848;8.924;2023-05-08T05:16:49;9.73;;;8.00;;
5339;SDS011;2692;48.848;8.924;2023-05-08T05:19:14;18.70;;;8.40;;
5339;SDS011;2692;48.848;8.924;2023-05-08T05:21:39;12.33;;;7.70;;
5339;SDS011;2692;48.848;8.924;2023-05-08T05:24:05;10.40;;;7.30;;
5339;SDS011;2692;48.848;8.924;2023-05-08T05:26:30;37.10;;;8.80;;
5339;SDS011;2692;48.848;8.924;2023-05-08T05:28:56;12.37;;;6.87;;
5339;SDS011;2692;48.848;8.924;2023-05-08T05:31:22;9.70;;;7.03;;
5339;SDS011;2692;48.848;8.924;2023-05-08T05:33:47;8.70;;;7.80;;
5339;SDS011;2692;48.848;8.924;2023-05-08T05:36:13;17.97;;;10.40;;
5339;SDS011;2692;48.848;8.924;2023-05-08T05:38:38;11.07;;;7.70;;
5339;SDS011;2692;48.848;8.924;2023-05-08T05:41:04;13.90;;;7.23;;
5339;SDS011;2692;48.848;8.924;2023-05-08T05:43:29;18.90;;;8.97;;
5339;SDS011;2692;48.848;8.924;2023-05-08T05:45:54;8.67;;;7.07;;
5339;SDS011;2692;48.848;8.924;2023-05-08T05:48:20;10.10;;;6.43;;
5339;SDS011;2692;48.848;8.924;2023-05-08T05:50:46;7.90;;;6.37;;
5339;SDS011;2692;48.848;8.924;2023-05-08T05:53:11;14.37;;;6.80;;
5339;SDS011;2692;48.848;8.924;2023-05-08T05:55:37;13.03;;;6.90;;
5339;SDS011;2692;48.848;8.924;2023-05-08T05:58:02;17.13;;;6.97;;
5339;SDS011;2692;48.848;8.924;2023-05-08T06:00:28;8.53;;;5.47;;
5339;SDS011;2692;48.848;8.924;2023-05-08T06:02:55;8.37;;;6.00;;
5339;SDS011;2692;48.848;8.924;2023-05-08T06:05:21;8.50;;;6.50;;
5339;SDS011;2692;48.848;8.924;2023-05-08T06:07:47;14.70;;;6.10;;
5339;SDS011;2692;48.848;8.924;2023-05-08T06:10:12;7.37;;;5.43;;
5339;SDS011;2692;48.848;8.924;2023-05-08T06:12:38;17.00;;;7.20;;
5339;SDS011;2692;48.848;8.924;2023-05-08T06:15:03;7.17;;;6.03;;
5339;SDS011;2692;48.848;8.924;2023-05-08T06:17:29;6.17;;;5.00;;
5339;SDS011;2692;48.848;8.924;2023-05-08T06:19:54;10.27;;;7.37;;
5339;SDS011;2692;48.848;8.924;2023-05-08T06:22:20;8.60;;;5.87;;
5339;SDS011;2692;48.848;8.924;2023-05-08T06:24:47;14.27;;;5.17;;
5339;SDS011;2692;48.848;8.924;2023-05-08T06:27:15;12.37;;;6.13;;
5339;SDS011;2692;48.848;8.924;2023-05-08T06:29:40;5.90;;;4.73;;
5339;SDS011;2692;48.848;8.924;2023-05-08T06:32:06;7.50;;;5.30;;
5339;SDS011;2692;48.848;8.924;2023-05-08T06:34:31;7.23;;;4.90;;
5339;SDS011;2692;48.848;8.924;2023-05-08T06:37:02;11.00;;;6.03;;
5339;SDS011;2692;48.848;8.924;2023-05-08T06:39:31;6.57;;;5.10;;
5339;SDS011;2692;48.848;8.924;2023-05-08T06:41:56;8.50;;;5.47;;
5339;SDS011;2692;48.848;8.924;2023-05-08T06:44:21;7.57;;;4.93;;
5339;SDS011;2692;48.848;8.924;2023-05-08T06:46:47;8.13;;;5.43;;
5339;SDS011;2692;48.848;8.924;2023-05-08T06:49:12;14.63;;;5.37;;
5339;SDS011;2692;48.848;8.924;2023-05-08T06:51:37;10.53;;;5.20;;
5339;SDS011;2692;48.848;8.924;2023-05-08T06:54:03;10.73;;;5.40;;
5339;SDS011;2692;48.848;8.924;2023-05-08T06:56:32;11.30;;;5.43;;
5339;SDS011;2692;48.848;8.924;2023-05-08T06:58:58;6.60;;;4.50;;
5339;SDS011;2692;48.848;8.924;2023-05-08T07:01:24;10.17;;;6.10;;
5339;SDS011;2692;48.848;8.924;2023-05-08T07:03:49;6.47;;;4.60;;
5339;SDS011;2692;48.848;8.924;2023-05-08T07:06:17;7.77;;;5.90;;
5339;SDS011;2692;48.848;8.924;2023-05-08T07:08:43;4.80;;;4.10;;
5339;SDS011;2692;48.848;8.924;2023-05-08T07:11:08;6.87;;;4.20;;
5339;SDS011;2692;48.848;8.924;2023-05-08T07:13:36;8.60;;;4.87;;
5339;SDS011;2692;48.848;8.924;2023-05-08T07:16:02;6.63;;;4.50;;
5339;SDS011;2692;48.848;8.924;2023-05-08T07:18:29;9.43;;;4.87;;
5339;SDS011;2692;48.848;8.924;2023-05-08T07:20:54;4.53;;;3.70;;
5339;SDS011;2692;48.848;8.924;2023-05-08T07:23:19;5.50;;;3.77;;
5339;SDS011;2692;48.848;8.924;2023-05-08T07:25:45;4.67;;;3.50;;
5339;SDS011;2692;48.848;8.924;2023-05-08T07:28:11;3.83;;;3.37;;
5339;SDS011;2692;48.848;8.924;2023-05-08T07:30:36;12.30;;;3.57;;
5339;SDS011;2692;48.848;8.924;2023-05-08T07:33:01;7.00;;;4.07;;
5339;SDS011;2692;48.848;8.924;2023-05-08T07:35:27;7.20;;;3.43;;
5339;SDS011;2692;48.848;8.924;2023-05-08T07:37:53;5.30;;;3.63;;
5339;SDS011;2692;48.848;8.924;2023-05-08T07:40:18;6.10;;;3.43;;
5339;SDS011;2692;48.848;8.924;2023-05-08T07:42:44;9.67;;;4.57;;
5339;SDS011;2692;48.848;8.924;2023-05-08T07:45:10;6.40;;;4.23;;
5339;SDS011;2692;48.848;8.924;2023-05-08T07:47:36;5.40;;;3.23;;
5339;SDS011;2692;48.848;8.924;2023-05-08T07:50:02;7.73;;;3.33;;
5339;SDS011;2692;48.848;8.924;2023-05-08T07:52:27;4.07;;;3.00;;
5339;SDS011;2692;48.848;8.924;2023-05-08T07:54:53;6.17;;;3.33;;
5339;SDS011;2692;48.848;8.924;2023-05-08T07:57:18;4.67;;;3.53;;
5339;SDS011;2692;48.848;8.924;2023-05-08T07:59:44;5.20;;;2.80;;
5339;SDS011;2692;48.848;8.924;2023-05-08T08:02:09;6.43;;;2.93;;
5339;SDS011;2692;48.848;8.924;2023-05-08T08:04:35;3.87;;;2.37;;
5339;SDS011;2692;48.848;8.924;2023-05-08T08:07:00;10.20;;;3.87;;
5339;SDS011;2692;48.848;8.924;2023-05-08T08:09:25;5.00;;;3.20;;
5339;SDS011;2692;48.848;8.924;2023-05-08T08:11:51;3.20;;;2.90;;
5339;SDS011;2692;48.848;8.924;2023-05-08T08:14:16;4.17;;;3.10;;
5339;SDS011;2692;48.848;8.924;2023-05-08T08:16:41;7.00;;;3.70;;
5339;SDS011;2692;48.848;8.924;2023-05-08T08:19:07;5.97;;;2.03;;
5339;SDS011;2692;48.848;8.924;2023-05-08T08:21:32;6.50;;;3.10;;
5339;SDS011;2692;48.848;8.924;2023-05-08T08:23:58;3.30;;;2.43;;
5339;SDS011;2692;48.848;8.924;2023-05-08T08:26:23;3.00;;;2.33;;
5339;SDS011;2692;48.848;8.924;2023-05-08T08:28:49;8.03;;;4.00;;
5339;SDS011;2692;48.848;8.924;2023-05-08T08:31:15;4.00;;;2.83;;
5339;SDS011;2692;48.848;8.924;2023-05-08T08:33:40;3.00;;;1.93;;
5339;SDS011;2692;48.848;8.924;2023-05-08T08:36:11;3.90;;;2.60;;
5339;SDS011;2692;48.848;8.924;2023-05-08T08:38:37;3.97;;;2.80;;
5339;SDS011;2692;48.848;8.924;2023-05-08T08:41:02;7.40;;;2.60;;
5339;SDS011;2692;48.848;8.924;2023-05-08T08:43:28;6.87;;;3.70;;
5339;SDS011;2692;48.848;8.924;2023-05-08T08:45:53;3.77;;;2.90;;
5339;SDS011;2692;48.848;8.924;2023-05-08T08:48:18;4.73;;;3.13;;
5339;SDS011;2692;48.848;8.924;2023-05-08T08:50:45;2.00;;;1.50;;
5339;SDS011;2692;48.848;8.924;2023-05-08T08:53:15;6.23;;;3.70;;
5339;SDS011;2692;48.848;8.924;2023-05-08T08:55:51;4.90;;;3.03;;
5339;SDS011;2692;48.848;8.924;2023-05-08T09:01:14;3.70;;;2.30;;
5339;SDS011;2692;48.848;8.924;2023-05-08T09:03:40;4.83;;;3.30;;
5339;SDS011;2692;48.848;8.924;2023-05-08T09:06:06;6.40;;;3.73;;
5339;SDS011;2692;48.848;8.924;2023-05-08T09:08:31;8.37;;;3.80;;
5339;SDS011;2692;48.848;8.924;2023-05-08T09:10:57;7.47;;;3.77;;
5339;SDS011;2692;48.848;8.924;2023-05-08T09:13:25;3.73;;;2.80;;
5339;SDS011;2692;48.848;8.924;2023-05-08T09:15:51;9.23;;;3.07;;
5339;SDS011;2692;48.848;8.924;2023-05-08T09:18:16;7.40;;;3.90;;
5339;SDS011;2692;48.848;8.924;2023-05-08T09:20:41;2.93;;;2.50;;
5339;SDS011;2692;48.848;8.924;2023-05-08T09:23:07;39.10;;;3.60;;
5339;SDS011;2692;48.848;8.924;2023-05-08T09:25:45;3.23;;;2.50;;
5339;SDS011;2692;48.848;8.924;2023-05-08T09:28:15;5.70;;;2.90;;
5339;SDS011;2692;48.848;8.924;2023-05-08T09:30:48;3.77;;;2.53;;
5339;SDS011;2692;48.848;8.924;2023-05-08T09:33:15;5.97;;;3.17;;
5339;SDS011;2692;48.848;8.924;2023-05-08T09:35:41;7.63;;;3.10;;
5339;SDS011;2692;48.848;8.924;2023-05-08T09:38:06;10.53;;;3.50;;
5339;SDS011;2692;48.848;8.924;2023-05-08T09:40:32;3.10;;;2.80;;
5339;SDS011;2692;48.848;8.924;2023-05-08T09:42:57;5.60;;;3.30;;
5339;SDS011;2692;48.848;8.924;2023-05-08T09:45:35;7.67;;;4.03;;
5339;SDS011;2692;48.848;8.924;2023-05-08T09:48:02;4.30;;;3.33;;
5339;SDS011;2692;48.848;8.924;2023-05-08T09:50:28;6.00;;;3.40;;
5339;SDS011;2692;48.848;8.924;2023-05-08T09:52:53;4.63;;;3.07;;
5339;SDS011;2692;48.848;8.924;2023-05-08T09:55:18;7.60;;;3.40;;
5339;SDS011;2692;48.848;8.924;2023-05-08T09:57:54;5.97;;;3.47;;
5339;SDS011;2692;48.848;8.924;2023-05-08T10:00:21;6.53;;;3.57;;
5339;SDS011;2692;48.848;8.924;2023-05-08T10:03:04;5.73;;;3.47;;
5339;SDS011;2692;48.848;8.924;2023-05-08T10:05:33;6.90;;;3.53;;
5339;SDS011;2692;48.848;8.924;2023-05-08T10:08:19;6.87;;;3.90;;
5339;SDS011;2692;48.848;8.924;2023-05-08T10:10:46;6.27;;;3.30;;
5339;SDS011;2692;48.848;8.924;2023-05-08T10:13:12;16.33;;;3.60;;
5339;SDS011;2692;48.848;8.924;2023-05-08T10:15:37;5.53;;;4.07;;
5339;SDS011;2692;48.848;8.924;2023-05-08T10:18:06;4.93;;;3.60;;
5339;SDS011;2692;48.848;8.924;2023-05-08T10:20:33;6.83;;;4.13;;
5339;SDS011;2692;48.848;8.924;2023-05-08T10:23:02;5.57;;;4.00;;
5339;SDS011;2692;48.848;8.924;2023-05-08T10:25:32;6.90;;;3.40;;
5339;SDS011;2692;48.848;8.924;2023-05-08T10:28:05;9.13;;;4.40;;
5339;SDS011;2692;48.848;8.924;2023-05-08T10:30:31;8.17;;;4.50;;
5339;SDS011;2692;48.848;8.924;2023-05-08T10:32:58;5.60;;;3.70;;
5339;SDS011;2692;48.848;8.924;2023-05-08T10:35:25;5.27;;;3.40;;
5339;SDS011;2692;48.848;8.924;2023-05-08T10:37:51;5.40;;;2.17;;
5339;SDS011;2692;48.848;8.924;2023-05-08T10:40:17;5.00;;;3.20;;
5339;SDS011;2692;48.848;8.924;2023-05-08T10:42:45;6.03;;;2.87;;
5339;SDS011;2692;48.848;8.924;2023-05-08T10:45:11;5.77;;;3.20;;
5339;SDS011;2692;48.848;8.924;2023-05-08T10:47:41;3.27;;;2.60;;
5339;SDS011;2692;48.848;8.924;2023-05-08T10:50:38;6.40;;;3.37;;
5339;SDS011;2692;48.848;8.924;2023-05-08T10:53:16;3.70;;;3.10;;
5339;SDS011;2692;48.848;8.924;2023-05-08T10:55:45;5.63;;;3.27;;
5339;SDS011;2692;48.848;8.924;2023-05-08T10:58:12;5.83;;;3.00;;
5339;SDS011;2692;48.848;8.924;2023-05-08T11:03:14;9.10;;;4.10;;
5339;SDS011;2692;48.848;8.924;2023-05-08T11:05:44;4.60;;;2.90;;
5339;SDS011;2692;48.848;8.924;2023-05-08T11:08:17;6.80;;;3.57;;
5339;SDS011;2692;48.848;8.924;2023-05-08T11:15:58;5.70;;;3.57;;
5339;SDS011;2692;48.848;8.924;2023-05-08T11:18:23;4.40;;;3.03;;
5339;SDS011;2692;48.848;8.924;2023-05-08T11:20:54;5.07;;;3.67;;
5339;SDS011;2692;48.848;8.924;2023-05-08T11:23:27;10.97;;;4.40;;
5339;SDS011;2692;48.848;8.924;2023-05-08T11:28:31;7.17;;;3.50;;
5339;SDS011;2692;48.848;8.924;2023-05-08T11:31:00;6.50;;;3.20;;
5339;SDS011;2692;48.848;8.924;2023-05-08T11:33:33;7.20;;;3.93;;
5339;SDS011;2692;48.848;8.924;2023-05-08T11:39:06;5.33;;;4.30;;
5339;SDS011;2692;48.848;8.924;2023-05-08T11:41:32;7.03;;;4.07;;
5339;SDS011;2692;48.848;8.924;2023-05-08T11:46:42;6.50;;;4.73;;
5339;SDS011;2692;48.848;8.924;2023-05-08T11:49:18;8.93;;;4.20;;
5339;SDS011;2692;48.848;8.924;2023-05-08T11:51:45;3.30;;;2.80;;
5339;SDS011;2692;48.848;8.924;2023-05-08T11:54:13;6.80;;;3.50;;
5339;SDS011;2692;48.848;8.924;2023-05-08T11:56:39;11.37;;;4.40;;
5339;SDS011;2692;48.848;8.924;2023-05-08T11:59:05;6.10;;;4.30;;
5339;SDS011;2692;48.848;8.924;2023-05-08T12:01:32;7.93;;;3.93;;
5339;SDS011;2692;48.848;8.924;2023-05-08T12:04:02;6.27;;;3.17;;
5339;SDS011;2692;48.848;8.924;2023-05-08T12:06:33;7.67;;;3.80;;
5339;SDS011;2692;48.848;8.924;2023-05-08T12:09:01;9.00;;;4.50;;
5339;SDS011;2692;48.848;8.924;2023-05-08T12:11:29;8.13;;;4.07;;
5339;SDS011;2692;48.848;8.924;2023-05-08T12:13:55;6.40;;;4.13;;
5339;SDS011;2692;48.848;8.924;2023-05-08T12:16:23;5.47;;;3.10;;
5339;SDS011;2692;48.848;8.924;2023-05-08T12:18:49;12.27;;;4.97;;
5339;SDS011;2692;48.848;8.924;2023-05-08T12:21:15;9.80;;;3.77;;
5339;SDS011;2692;48.848;8.924;2023-05-08T12:23:41;6.50;;;4.03;;
5339;SDS011;2692;48.848;8.924;2023-05-08T12:26:06;10.73;;;4.70;;
5339;SDS011;2692;48.848;8.924;2023-05-08T12:28:32;9.00;;;4.00;;
5339;SDS011;2692;48.848;8.924;2023-05-08T12:30:58;6.23;;;4.13;;
5339;SDS011;2692;48.848;8.924;2023-05-08T12:33:23;8.90;;;4.30;;
5339;SDS011;2692;48.848;8.924;2023-05-08T12:35:49;7.70;;;4.27;;
5339;SDS011;2692;48.848;8.924;2023-05-08T12:38:14;14.90;;;4.70;;
5339;SDS011;2692;48.848;8.924;2023-05-08T12:40:41;7.87;;;3.73;;
5339;SDS011;2692;48.848;8.924;2023-05-08T12:43:07;9.23;;;4.33;;
5339;SDS011;2692;48.848;8.924;2023-05-08T12:45:35;7.17;;;2.90;;
5339;SDS011;2692;48.848;8.924;2023-05-08T12:48:03;11.70;;;4.43;;
5339;SDS011;2692;48.848;8.924;2023-05-08T12:50:34;7.60;;;3.60;;
5339;SDS011;2692;48.848;8.924;2023-05-08T12:53:01;10.87;;;5.03;;
5339;SDS011;2692;48.848;8.924;2023-05-08T12:55:39;4.90;;;3.80;;
5339;SDS011;2692;48.848;8.924;2023-05-08T12:58:12;6.03;;;4.27;;
5339;SDS011;2692;48.848;8.924;2023-05-08T13:00:39;8.40;;;4.03;;
5339;SDS011;2692;48.848;8.924;2023-05-08T13:03:22;5.50;;;3.80;;
5339;SDS011;2692;48.848;8.924;2023-05-08T13:05:52;9.63;;;4.60;;
5339;SDS011;2692;48.848;8.924;2023-05-08T13:08:19;9.67;;;4.80;;
5339;SDS011;2692;48.848;8.924;2023-05-08T13:10:54;9.23;;;5.40;;
5339;SDS011;2692;48.848;8.924;2023-05-08T13:13:23;7.67;;;4.90;;
5339;SDS011;2692;48.848;8.924;2023-05-08T13:15:50;9.17;;;5.50;;
5339;SDS011;2692;48.848;8.924;2023-05-08T13:18:17;7.43;;;4.47;;
5339;SDS011;2692;48.848;8.924;2023-05-08T13:20:43;11.70;;;5.47;;
5339;SDS011;2692;48.848;8.924;2023-05-08T13:23:08;11.63;;;6.17;;
5339;SDS011;2692;48.848;8.924;2023-05-08T13:25:35;8.37;;;5.37;;
5339;SDS011;2692;48.848;8.924;2023-05-08T13:28:01;8.20;;;5.00;;
5339;SDS011;2692;48.848;8.924;2023-05-08T13:30:26;10.40;;;6.30;;
5339;SDS011;2692;48.848;8.924;2023-05-08T13:32:52;12.13;;;6.37;;
5339;SDS011;2692;48.848;8.924;2023-05-08T13:35:17;12.53;;;6.90;;
5339;SDS011;2692;48.848;8.924;2023-05-08T13:37:43;13.20;;;5.13;;
5339;SDS011;2692;48.848;8.924;2023-05-08T13:40:09;9.20;;;6.03;;
5339;SDS011;2692;48.848;8.924;2023-05-08T13:42:34;9.03;;;5.07;;
5339;SDS011;2692;48.848;8.924;2023-05-08T13:44:59;8.13;;;5.63;;
5339;SDS011;2692;48.848;8.924;2023-05-08T13:47:25;11.40;;;6.23;;
5339;SDS011;2692;48.848;8.924;2023-05-08T13:49:51;6.07;;;5.47;;
5339;SDS011;2692;48.848;8.924;2023-05-08T13:52:16;7.70;;;5.20;;
5339;SDS011;2692;48.848;8.924;2023-05-08T13:54:41;14.67;;;5.70;;
5339;SDS011;2692;48.848;8.924;2023-05-08T13:57:07;8.33;;;5.40;;
5339;SDS011;2692;48.848;8.924;2023-05-08T13:59:32;8.27;;;5.60;;
5339;SDS011;2692;48.848;8.924;2023-05-08T14:01:58;18.20;;;7.97;;
5339;SDS011;2692;48.848;8.924;2023-05-08T14:04:24;11.83;;;6.97;;
5339;SDS011;2692;48.848;8.924;2023-05-08T14:06:49;15.60;;;6.33;;
5339;SDS011;2692;48.848;8.924;2023-05-08T14:09:15;13.33;;;6.70;;
5339;SDS011;2692;48.848;8.924;2023-05-08T14:11:40;9.37;;;6.07;;
5339;SDS011;2692;48.848;8.924;2023-05-08T14:14:08;11.17;;;5.40;;
5339;SDS011;2692;48.848;8.924;2023-05-08T14:16:34;12.80;;;6.60;;
5339;SDS011;2692;48.848;8.924;2023-05-08T14:18:59;11.43;;;6.30;;
5339;SDS011;2692;48.848;8.924;2023-05-08T14:21:25;8.07;;;5.90;;
5339;SDS011;2692;48.848;8.924;2023-05-08T14:23:51;9.30;;;6.03;;
5339;SDS011;2692;48.848;8.924;2023-05-08T14:26:16;9.60;;;6.00;;
5339;SDS011;2692;48.848;8.924;2023-05-08T14:28:42;9.13;;;5.20;;
5339;SDS011;2692;48.848;8.924;2023-05-08T14:31:07;9.03;;;5.87;;
5339;SDS011;2692;48.848;8.924;2023-05-08T14:33:32;9.77;;;5.50;;
5339;SDS011;2692;48.848;8.924;2023-05-08T14:35:57;11.63;;;5.93;;
5339;SDS011;2692;48.848;8.924;2023-05-08T14:38:23;7.70;;;5.43;;
5339;SDS011;2692;48.848;8.924;2023-05-08T14:40:51;7.60;;;5.13;;
5339;SDS011;2692;48.848;8.924;2023-05-08T14:43:18;10.63;;;5.33;;
5339;SDS011;2692;48.848;8.924;2023-05-08T14:45:44;11.10;;;6.73;;
5339;SDS011;2692;48.848;8.924;2023-05-08T14:48:09;12.67;;;5.60;;
5339;SDS011;2692;48.848;8.924;2023-05-08T14:50:34;10.40;;;6.43;;
5339;SDS011;2692;48.848;8.924;2023-05-08T14:52:59;10.13;;;6.83;;
5339;SDS011;2692;48.848;8.924;2023-05-08T14:55:25;13.70;;;6.00;;
5339;SDS011;2692;48.848;8.924;2023-05-08T14:57:50;8.33;;;5.43;;
5339;SDS011;2692;48.848;8.924;2023-05-08T15:00:16;14.73;;;5.63;;
5339;SDS011;2692;48.848;8.924;2023-05-08T15:02:42;11.00;;;6.97;;
5339;SDS011;2692;48.848;8.924;2023-05-08T15:05:10;6.13;;;4.87;;
5339;SDS011;2692;48.848;8.924;2023-05-08T15:07:35;6.60;;;5.43;;
5339;SDS011;2692;48.848;8.924;2023-05-08T15:10:01;9.47;;;6.13;;
5339;SDS011;2692;48.848;8.924;2023-05-08T15:12:27;9.60;;;6.23;;
5339;SDS011;2692;48.848;8.924;2023-05-08T15:14:52;14.17;;;6.13;;
5339;SDS011;2692;48.848;8.924;2023-05-08T15:17:17;7.60;;;5.83;;
5339;SDS011;2692;48.848;8.924;2023-05-08T15:19:42;11.47;;;6.50;;
5339;SDS011;2692;48.848;8.924;2023-05-08T15:22:09;9.80;;;6.10;;
5339;SDS011;2692;48.848;8.924;2023-05-08T15:24:34;10.30;;;5.20;;
5339;SDS011;2692;48.848;8.924;2023-05-08T15:27:00;10.77;;;6.80;;
5339;SDS011;2692;48.848;8.924;2023-05-08T15:29:25;10.90;;;7.23;;
5339;SDS011;2692;48.848;8.924;2023-05-08T15:31:51;8.50;;;6.13;;
5339;SDS011;2692;48.848;8.924;2023-05-08T15:34:16;10.13;;;6.30;;
5339;SDS011;2692;48.848;8.924;2023-05-08T15:36:41;11.13;;;6.60;;
5339;SDS011;2692;48.848;8.924;2023-05-08T15:39:06;14.47;;;7.93;;
5339;SDS011;2692;48.848;8.924;2023-05-08T15:41:32;8.73;;;5.43;;
5339;SDS011;2692;48.848;8.924;2023-05-08T15:43:58;16.83;;;6.67;;
5339;SDS011;2692;48.848;8.924;2023-05-08T15:46:23;12.00;;;5.90;;
5339;SDS011;2692;48.848;8.924;2023-05-08T15:48:48;7.27;;;5.83;;
5339;SDS011;2692;48.848;8.924;2023-05-08T15:51:13;9.07;;;6.70;;
5339;SDS011;2692;48.848;8.924;2023-05-08T15:53:39;12.00;;;7.17;;
5339;SDS011;2692;48.848;8.924;2023-05-08T15:56:04;10.13;;;6.83;;
5339;SDS011;2692;48.848;8.924;2023-05-08T15:58:30;11.83;;;6.73;;